createdAt,value
2022-08-07T00:02:41.129Z,100310.88
2022-08-07T00:05:01.126Z,100335.31
2022-08-07T00:07:40.573Z,100337.22
2022-08-07T00:10:27.291Z,100336.81
2022-08-07T00:12:59.953Z,100332.22
2022-08-07T00:15:38.253Z,100315.63
2022-08-07T00:18:19.590Z,100326.81
2022-08-07T00:20:51.496Z,100330.34
2022-08-07T00:23:21.179Z,100330.69
2022-08-07T00:25:59.085Z,100326.31
2022-08-07T00:28:33.245Z,100299.44
2022-08-07T00:31:12.476Z,100313.03
2022-08-07T00:33:43.257Z,100303.69
2022-08-07T00:36:14.308Z,100317.00
2022-08-07T00:38:41.122Z,100308.94
2022-08-07T00:41:09.956Z,100296.13
2022-08-07T00:44:00.627Z,100294.34
2022-08-07T00:46:28.345Z,100280.31
2022-08-07T00:48:55.099Z,100287.31
2022-08-07T00:51:21.939Z,100280.56
2022-08-07T00:53:55.009Z,100276.19
2022-08-07T00:56:23.631Z,100251.44
2022-08-07T00:58:57.853Z,100277.34
2022-08-07T01:01:24.735Z,100264.13
2022-08-07T01:03:55.739Z,100217.22
2022-08-07T01:06:27.973Z,100278.25
2022-08-07T01:08:56.244Z,100259.91
2022-08-07T01:12:28.077Z,100255.03
2022-08-07T01:14:15.403Z,100271.66
2022-08-07T01:16:47.319Z,100270.09
2022-08-07T01:19:19.231Z,100265.72
2022-08-07T01:21:48.410Z,100251.19
2022-08-07T01:24:18.701Z,100265.50
2022-08-07T01:26:52.033Z,100256.50
2022-08-07T01:29:22.747Z,100262.06
2022-08-07T01:31:50.989Z,100255.19
2022-08-07T01:34:18.851Z,100262.34
2022-08-07T01:36:52.551Z,100272.31
2022-08-07T01:39:39.476Z,100246.59
2022-08-07T01:42:37.146Z,100249.91
2022-08-07T01:44:55.540Z,100253.53
2022-08-07T01:48:18.978Z,100252.44
2022-08-07T01:50:10.134Z,100253.28
2022-08-07T01:52:39.310Z,100242.19
2022-08-07T01:55:22.168Z,100233.22
2022-08-07T01:58:01.311Z,100224.69
2022-08-07T02:00:34.899Z,100223.19
2022-08-07T02:03:21.121Z,100227.44
2022-08-07T02:06:08.886Z,100213.84
2022-08-07T02:08:54.361Z,100226.53
2022-08-07T02:12:03.015Z,100229.38
2022-08-07T02:14:11.421Z,100193.50
2022-08-07T02:16:59.099Z,100234.22
2022-08-07T02:20:04.686Z,100217.59
2022-08-07T02:22:14.589Z,100227.97
2022-08-07T02:24:46.958Z,100226.03
2022-08-07T02:27:18.902Z,100233.94
2022-08-07T02:29:54.036Z,100235.69
2022-08-07T02:32:23.140Z,100232.56
2022-08-07T02:34:52.400Z,100234.22
2022-08-07T02:37:20.708Z,100233.97
2022-08-07T02:40:02.449Z,100210.56
2022-08-07T02:42:38.199Z,100220.66
2022-08-07T02:46:00.962Z,100229.00
2022-08-07T02:47:56.170Z,100234.22
2022-08-07T02:50:26.310Z,100229.81
2022-08-07T02:53:06.396Z,100224.50
2022-08-07T02:56:01.878Z,100202.16
2022-08-07T02:58:27.311Z,100221.22
2022-08-07T03:00:57.577Z,100222.44
2022-08-07T03:03:42.176Z,100221.50
2022-08-07T03:06:25.900Z,100231.75
2022-08-07T03:09:02.529Z,100218.25
2022-08-07T03:11:32.625Z,100216.81
2022-08-07T03:14:01.561Z,100220.13
2022-08-07T03:16:32.738Z,100186.94
2022-08-07T03:19:00.703Z,100218.03
2022-08-07T03:28:09.462Z,100211.16
2022-08-07T03:31:11.569Z,100216.34
2022-08-07T03:33:42.307Z,100189.88
2022-08-07T03:36:10.762Z,100216.97
2022-08-07T03:38:41.088Z,100163.22
2022-08-07T03:41:10.445Z,100207.13
2022-08-07T03:43:38.846Z,100187.50
2022-08-07T03:46:18.316Z,100223.66
2022-08-07T03:49:02.663Z,100218.25
2022-08-07T03:51:47.070Z,100178.91
2022-08-07T03:54:36.412Z,100201.44
2022-08-07T03:57:07.380Z,100218.91
2022-08-07T03:59:34.768Z,100219.44
2022-08-07T04:02:01.824Z,100221.31
2022-08-07T04:04:28.876Z,100224.38
2022-08-07T04:07:00.133Z,100205.72
2022-08-07T04:09:45.513Z,100228.09
2022-08-07T04:12:24.184Z,100238.28
2022-08-07T04:14:58.263Z,100187.31
2022-08-07T04:18:57.257Z,100195.34
2022-08-07T04:20:14.678Z,100254.66
2022-08-07T04:22:53.331Z,100238.44
2022-08-07T04:25:23.975Z,100251.75
2022-08-07T04:28:00.717Z,100239.00
2022-08-07T04:30:39.602Z,100232.59
2022-08-07T04:33:16.906Z,100235.72
2022-08-07T04:35:50.529Z,100172.94
2022-08-07T04:38:18.990Z,100202.59
2022-08-07T04:40:51.731Z,100193.63
2022-08-07T04:44:10.325Z,100224.88
2022-08-07T04:46:34.680Z,100235.09
2022-08-07T04:49:24.218Z,100248.38
2022-08-07T04:52:10.445Z,100232.66
2022-08-07T04:54:55.704Z,100239.28
2022-08-07T04:58:16.316Z,100235.75
2022-08-07T05:00:46.678Z,100236.94
2022-08-07T05:04:00.113Z,100245.22
2022-08-07T05:06:28.098Z,100186.94
2022-08-07T05:09:18.550Z,100232.44
2022-08-07T05:12:09.739Z,100238.13
2022-08-07T05:14:53.404Z,100247.25
2022-08-07T05:17:50.861Z,100238.50
2022-08-07T05:20:17.086Z,100238.50
2022-08-07T05:22:47.511Z,100254.72
2022-08-07T05:25:25.591Z,100237.19
2022-08-07T05:28:20.397Z,100253.63
2022-08-07T05:30:52.216Z,100251.22
2022-08-07T05:33:20.888Z,100233.16
2022-08-07T05:35:51.536Z,100246.75
2022-08-07T05:38:59.411Z,100245.00
2022-08-07T05:41:14.192Z,100239.88
2022-08-07T05:44:08.764Z,100237.97
2022-08-07T05:46:35.228Z,100257.00
2022-08-07T05:49:11.733Z,100242.31
2022-08-07T05:51:42.240Z,100250.31
2022-08-07T05:54:29.776Z,100226.00
2022-08-07T05:56:58.882Z,100267.47
2022-08-07T05:59:27.413Z,100256.50
2022-08-07T06:01:56.807Z,100180.44
2022-08-07T06:04:30.057Z,100277.59
2022-08-07T06:07:03.833Z,100268.56
2022-08-07T06:09:44.999Z,100259.13
2022-08-07T06:12:21.118Z,100267.47
2022-08-07T06:15:05.376Z,100270.88
2022-08-07T06:17:38.219Z,100235.72
2022-08-07T06:20:12.809Z,100273.19
2022-08-07T06:23:02.145Z,100243.19
2022-08-07T06:25:41.962Z,100272.38
2022-08-07T06:28:27.755Z,100274.03
2022-08-07T06:30:56.303Z,100238.59
2022-08-07T06:33:26.693Z,100255.56
2022-08-07T06:36:06.472Z,100259.50
2022-08-07T06:38:58.540Z,100222.94
2022-08-07T06:42:00.907Z,100230.16
2022-08-07T06:44:21.944Z,100167.03
2022-08-07T06:46:53.829Z,100269.22
2022-08-07T06:49:51.041Z,100272.00
2022-08-07T06:52:32.943Z,100211.34
2022-08-07T06:55:34.547Z,100280.00
2022-08-07T06:58:04.923Z,100263.28
2022-08-07T07:00:39.404Z,100296.84
2022-08-07T07:03:13.982Z,100282.34
2022-08-07T07:06:03.981Z,100294.13
2022-08-07T07:08:33.501Z,100244.34
2022-08-07T07:11:13.037Z,100235.81
2022-08-07T07:13:58.142Z,100265.91
2022-08-07T07:16:45.207Z,100234.00
2022-08-07T07:19:55.755Z,100271.63
2022-08-07T07:22:36.547Z,100285.19
2022-08-07T07:26:31.622Z,100304.13
2022-08-07T07:28:02.981Z,100301.09
2022-08-07T07:30:39.579Z,100301.31
2022-08-07T07:33:11.599Z,100295.06
2022-08-07T07:35:51.860Z,100287.31
2022-08-07T07:38:29.070Z,100315.91
2022-08-07T07:41:02.663Z,100295.31
2022-08-07T07:44:14.867Z,100211.06
2022-08-07T07:46:49.916Z,100311.97
2022-08-07T07:50:35.972Z,100297.66
2022-08-07T07:51:59.718Z,100314.66
2022-08-07T07:54:28.639Z,100278.25
2022-08-07T07:56:57.635Z,100307.09
2022-08-07T07:59:52.530Z,100332.53
2022-08-07T08:02:22.743Z,100332.44
2022-08-07T08:05:05.471Z,100315.09
2022-08-07T08:08:00.012Z,100326.56
2022-08-07T08:10:38.106Z,100331.53
2022-08-07T08:13:10.466Z,100287.78
2022-08-07T08:15:59.076Z,100339.06
2022-08-07T08:18:30.291Z,100337.41
2022-08-07T08:21:02.146Z,100299.38
2022-08-07T08:23:52.114Z,100340.53
2022-08-07T08:26:40.790Z,100347.81
2022-08-07T08:29:09.040Z,100342.66
2022-08-07T08:32:10.163Z,100290.97
2022-08-07T08:34:29.215Z,100324.56
2022-08-07T08:37:00.588Z,100347.78
2022-08-07T08:39:39.283Z,100334.22
2022-08-07T08:42:32.020Z,100299.03
2022-08-07T08:45:18.585Z,100343.81
2022-08-07T08:48:10.769Z,100344.50
2022-08-07T08:51:14.225Z,100347.63
2022-08-07T08:54:02.636Z,100351.56
2022-08-07T08:56:47.290Z,100331.44
2022-08-07T08:59:25.753Z,100354.69
2022-08-07T09:02:36.515Z,100352.28
2022-08-07T09:05:36.961Z,100352.47
2022-08-07T09:08:32.167Z,100356.72
2022-08-07T09:11:50.862Z,100314.84
2022-08-07T09:14:58.836Z,100361.28
2022-08-07T09:17:26.457Z,100355.16
2022-08-07T09:20:35.306Z,100350.44
2022-08-07T09:24:31.416Z,100278.97
2022-08-07T09:26:07.904Z,100360.72
2022-08-07T09:30:05.932Z,100362.19
2022-08-07T09:31:49.314Z,100339.63
2022-08-07T09:34:32.199Z,100331.53
2022-08-07T09:37:05.081Z,100339.53
2022-08-07T09:40:05.811Z,100354.69
2022-08-07T09:43:00.626Z,100367.53
2022-08-07T09:47:27.511Z,100366.25
2022-08-07T09:50:01.670Z,100371.75
2022-08-07T09:52:34.056Z,100380.53
2022-08-07T09:55:17.023Z,100386.44
2022-08-07T09:58:21.104Z,100377.38
2022-08-07T10:01:02.606Z,100380.84
2022-08-07T10:04:06.620Z,100389.75
2022-08-07T10:07:02.549Z,100377.28
2022-08-07T10:10:00.707Z,100384.69
2022-08-07T10:12:39.814Z,100393.72
2022-08-07T10:15:44.017Z,100383.88
2022-08-07T10:18:26.379Z,100328.50
2022-08-07T10:21:02.535Z,100384.91
2022-08-07T10:24:05.122Z,100396.47
2022-08-07T10:26:44.978Z,100393.44
2022-08-07T10:29:20.250Z,100387.28
2022-08-07T10:32:51.049Z,100386.53
2022-08-07T10:35:55.205Z,100380.00
2022-08-07T10:38:51.163Z,100389.66
2022-08-07T10:41:52.062Z,100382.50
2022-08-07T10:44:28.368Z,100376.91
2022-08-07T10:47:31.149Z,100385.25
2022-08-07T10:50:25.719Z,100350.34
2022-08-07T10:53:10.783Z,100377.75
2022-08-07T10:55:53.320Z,100387.75
2022-08-07T10:58:59.356Z,100358.63
2022-08-07T11:01:52.079Z,100378.09
2022-08-07T11:04:59.992Z,100365.34
2022-08-07T11:08:01.111Z,100384.34
2022-08-07T11:10:43.017Z,100381.84
2022-08-07T11:14:44.158Z,100377.13
2022-08-07T11:16:31.304Z,100320.94
2022-08-07T11:19:02.739Z,100371.19
2022-08-07T11:21:40.865Z,100376.53
2022-08-07T11:24:32.332Z,100352.88
2022-08-07T11:27:17.838Z,100371.53
2022-08-07T11:30:17.929Z,100372.69
2022-08-07T11:32:58.849Z,100364.81
2022-08-07T11:35:34.919Z,100338.03
2022-08-07T11:38:30.698Z,100332.63
2022-08-07T11:41:04.102Z,100369.53
2022-08-07T11:44:11.001Z,100338.56
2022-08-07T11:47:06.592Z,100352.97
2022-08-07T11:50:30.471Z,100350.50
2022-08-07T11:53:17.027Z,100301.28
2022-08-07T11:56:26.818Z,100361.38
2022-08-07T11:59:22.263Z,100347.53
2022-08-07T12:02:20.926Z,100336.53
2022-08-07T12:05:15.288Z,100360.38
2022-08-07T12:08:03.778Z,100342.50
2022-08-07T12:10:42.451Z,100353.59
2022-08-07T12:13:36.676Z,100300.69
2022-08-07T12:16:12.040Z,100319.50
2022-08-07T12:19:22.014Z,100324.88
2022-08-07T12:22:36.004Z,100337.06
2022-08-07T12:26:00.288Z,100334.94
2022-08-07T12:28:11.083Z,100326.63
2022-08-07T12:30:46.737Z,100334.56
2022-08-07T12:33:28.084Z,100259.78
2022-08-07T12:36:03.670Z,100241.88
2022-08-07T12:38:42.864Z,100322.16
2022-08-07T12:41:15.544Z,100306.38
2022-08-07T12:44:02.887Z,100324.28
2022-08-07T12:46:50.763Z,100328.16
2022-08-07T12:49:51.433Z,100306.66
2022-08-07T12:52:35.089Z,100330.97
2022-08-07T12:55:17.540Z,100288.22
2022-08-07T12:58:00.397Z,100308.28
2022-08-07T13:00:50.974Z,100315.44
2022-08-07T13:04:02.432Z,100300.13
2022-08-07T13:07:00.844Z,100315.88
2022-08-07T13:10:19.844Z,100309.25
2022-08-07T13:13:01.671Z,100302.31
2022-08-07T13:15:50.872Z,100289.03
2022-08-07T13:18:52.298Z,100292.06
2022-08-07T13:21:50.476Z,100302.81
2022-08-07T13:24:29.440Z,100301.97
2022-08-07T13:27:21.942Z,100301.56
2022-08-07T13:30:03.655Z,100295.69
2022-08-07T13:32:41.437Z,100282.50
2022-08-07T13:35:21.504Z,100290.94
2022-08-07T13:38:11.344Z,100270.31
2022-08-07T13:40:55.072Z,100276.59
2022-08-07T13:43:23.352Z,100250.34
2022-08-07T13:46:12.831Z,100228.75
2022-08-07T13:48:59.584Z,100288.63
2022-08-07T13:52:22.766Z,100281.78
2022-08-07T13:54:23.512Z,100271.94
2022-08-07T13:56:59.579Z,100275.44
2022-08-07T13:59:33.449Z,100232.03
2022-08-07T14:02:10.478Z,100217.34
2022-08-07T14:04:54.465Z,100271.66
2022-08-07T14:07:24.706Z,100265.44
2022-08-07T14:10:01.383Z,100244.72
2022-08-07T14:12:41.554Z,100278.78
2022-08-07T14:15:23.819Z,100269.13
2022-08-07T14:18:15.712Z,100266.22
2022-08-07T14:20:49.343Z,100247.91
2022-08-07T14:23:58.528Z,100270.63
2022-08-07T14:26:29.843Z,100269.41
2022-08-07T14:29:04.363Z,100263.28
2022-08-07T14:31:42.937Z,100253.75
2022-08-07T14:34:22.725Z,100213.13
2022-08-07T14:36:56.161Z,100262.75
2022-08-07T14:40:16.871Z,100254.63
2022-08-07T14:42:20.736Z,100253.63
2022-08-07T14:44:53.848Z,100207.25
2022-08-07T14:47:31.766Z,100159.97
2022-08-07T14:50:06.985Z,100154.19
2022-08-07T14:52:39.595Z,100255.56
2022-08-07T14:55:17.604Z,100213.06
2022-08-07T15:00:39.603Z,100222.38
2022-08-07T15:03:18.688Z,100241.47
2022-08-07T15:08:54.641Z,100230.59
2022-08-07T15:11:53.618Z,100219.94
2022-08-07T15:14:20.360Z,100240.31
2022-08-07T15:17:00.561Z,100228.97
2022-08-07T15:20:31.444Z,100234.09
2022-08-07T15:22:33.409Z,100231.25
2022-08-07T15:25:17.790Z,100237.16
2022-08-07T15:31:04.619Z,100242.28
2022-08-07T15:33:33.457Z,100218.28
2022-08-07T15:36:05.153Z,100235.53
2022-08-07T15:38:51.216Z,100227.81
2022-08-07T15:44:15.323Z,100225.84
2022-08-07T15:46:47.380Z,100216.09
2022-08-07T15:52:15.647Z,100187.41
2022-08-07T15:54:45.642Z,100215.22
2022-08-07T15:57:27.794Z,100210.34
2022-08-07T16:00:07.316Z,100205.31
2022-08-07T16:02:46.946Z,100195.81
2022-08-07T16:05:19.749Z,100220.25
2022-08-07T16:08:30.942Z,100207.19
2022-08-07T16:10:38.720Z,100175.53
2022-08-07T16:13:59.300Z,100205.69
2022-08-07T16:16:48.817Z,100106.31
2022-08-07T16:19:19.606Z,100196.75
2022-08-07T16:22:33.746Z,100191.97
2022-08-07T16:25:53.046Z,100194.41
2022-08-07T16:30:05.937Z,100199.38
2022-08-07T16:31:51.477Z,100205.63
2022-08-07T16:34:48.456Z,100181.69
2022-08-07T16:38:06.869Z,100197.44
2022-08-07T16:40:28.199Z,100185.13
2022-08-07T16:43:23.620Z,100177.78
2022-08-07T16:47:04.481Z,100170.31
2022-08-07T16:50:27.837Z,100178.31
2022-08-07T16:52:55.448Z,100179.16
2022-08-07T16:55:59.119Z,100129.69
2022-08-07T16:59:10.186Z,100165.22
2022-08-07T17:01:42.567Z,100174.03
2022-08-07T17:04:24.341Z,100167.88
2022-08-07T17:07:08.895Z,100175.31
2022-08-07T17:10:06.465Z,100148.94
2022-08-07T17:12:38.821Z,100167.13
2022-08-07T17:15:15.635Z,100172.06
2022-08-07T17:17:48.917Z,100174.47
2022-08-07T17:20:41.952Z,100165.09
2022-08-07T17:23:35.051Z,100107.66
2022-08-07T17:26:23.197Z,100157.09
2022-08-07T17:29:09.735Z,100171.06
2022-08-07T17:32:51.946Z,100173.84
2022-08-07T17:35:50.089Z,100175.69
2022-08-07T17:38:33.178Z,100176.28
2022-08-07T17:42:01.523Z,100159.78
2022-08-07T17:44:51.756Z,100171.16
2022-08-07T17:47:38.104Z,100182.00
2022-08-07T17:50:19.900Z,100130.56
2022-08-07T17:52:54.380Z,100184.59
2022-08-07T17:56:00.403Z,100170.66
2022-08-07T17:58:49.955Z,100176.56
2022-08-07T18:01:34.733Z,100175.66
2022-08-07T18:04:31.243Z,100183.91
2022-08-07T18:07:20.667Z,100176.63
2022-08-07T18:10:07.470Z,100185.09
2022-08-07T18:13:10.949Z,100134.69
2022-08-07T18:16:03.690Z,100187.06
2022-08-07T18:21:12.328Z,100172.38
2022-08-07T18:22:38.177Z,100183.94
2022-08-07T18:25:23.733Z,100169.91
2022-08-07T18:28:35.459Z,100159.66
2022-08-07T18:31:18.628Z,100178.06
2022-08-07T18:34:03.915Z,100191.13
2022-08-07T18:36:45.062Z,100185.59
2022-08-07T18:40:06.871Z,100197.69
2022-08-07T18:42:57.448Z,100181.25
2022-08-07T18:45:43.219Z,100197.31
2022-08-07T18:50:30.243Z,100206.47
2022-08-07T18:52:35.399Z,100205.66
2022-08-07T18:55:40.127Z,100192.81
2022-08-07T18:58:19.121Z,100203.69
2022-08-07T19:02:17.360Z,100207.13
2022-08-07T19:04:13.676Z,100201.75
2022-08-07T19:06:53.352Z,100208.19
2022-08-07T19:09:56.198Z,100196.34
2022-08-07T19:12:28.041Z,100220.03
2022-08-07T19:16:05.553Z,100219.22
2022-08-07T19:18:34.533Z,100221.88
2022-08-07T19:21:44.039Z,100222.38
2022-08-07T19:24:30.402Z,100171.34
2022-08-07T19:29:03.547Z,100226.00
2022-08-07T19:30:56.821Z,100154.81
2022-08-07T19:32:45.571Z,100228.41
2022-08-07T19:35:33.244Z,100231.06
2022-08-07T19:38:03.841Z,100199.28
2022-08-07T19:40:49.383Z,100218.72
2022-08-07T19:43:45.046Z,100213.31
2022-08-07T19:46:19.316Z,100224.50
2022-08-07T19:49:11.824Z,100234.19
2022-08-07T19:51:52.323Z,100249.38
2022-08-07T19:54:34.191Z,100229.00
2022-08-07T19:58:00.784Z,100197.97
2022-08-07T20:00:08.824Z,100226.19
2022-08-07T20:02:56.599Z,100221.63
2022-08-07T20:05:28.901Z,100244.81
2022-08-07T20:08:02.429Z,100246.13
2022-08-07T20:10:35.220Z,100244.34
2022-08-07T20:13:27.078Z,100237.41
2022-08-07T20:16:03.278Z,100247.72
2022-08-07T20:18:33.734Z,100254.06
2022-08-07T20:21:21.378Z,100176.34
2022-08-07T20:23:58.072Z,100214.53
2022-08-07T20:26:32.526Z,100259.78
2022-08-07T20:29:17.067Z,100252.25
2022-08-07T20:32:00.126Z,100278.25
2022-08-07T20:34:49.583Z,100262.03
2022-08-07T20:37:23.586Z,100247.66
2022-08-07T20:40:02.200Z,100259.66
2022-08-07T20:42:32.639Z,100176.13
2022-08-07T20:45:01.437Z,100247.47
2022-08-07T20:47:55.168Z,100273.03
2022-08-07T20:50:21.174Z,100255.63
2022-08-07T20:52:51.742Z,100229.72
2022-08-07T20:55:24.465Z,100274.16
2022-08-07T20:58:19.232Z,100248.75
2022-08-07T21:00:54.053Z,100245.66
2022-08-07T21:03:25.952Z,100257.38
2022-08-07T21:06:21.460Z,100267.53
2022-08-07T21:09:07.462Z,100273.19
2022-08-07T21:11:50.578Z,100296.59
2022-08-07T21:14:33.643Z,100243.81
2022-08-07T21:18:01.245Z,100233.06
2022-08-07T21:20:01.088Z,100283.91
2022-08-07T21:22:39.996Z,100272.56
2022-08-07T21:25:15.080Z,100303.88
2022-08-07T21:27:47.008Z,100306.25
2022-08-07T21:30:17.171Z,100274.78
2022-08-07T21:33:02.719Z,100314.25
2022-08-07T21:36:06.796Z,100274.78
2022-08-07T21:39:45.545Z,100307.63
2022-08-07T21:42:37.674Z,100311.28
2022-08-07T21:46:04.872Z,100299.00
2022-08-07T21:48:43.919Z,100297.34
2022-08-07T21:51:51.680Z,100284.72
2022-08-07T21:54:55.543Z,100292.53
2022-08-07T21:57:51.919Z,100267.16
2022-08-07T22:00:25.245Z,100261.00
2022-08-07T22:02:52.620Z,100302.91
2022-08-07T22:05:44.493Z,100287.44
2022-08-07T22:08:18.468Z,100208.31
2022-08-07T22:10:50.351Z,100237.25
2022-08-07T22:13:24.618Z,100284.81
2022-08-07T22:16:43.355Z,100297.59
2022-08-07T22:19:13.388Z,100275.50
2022-08-07T22:22:04.662Z,100260.34
2022-08-07T22:24:43.873Z,100273.03
2022-08-07T22:27:21.058Z,100286.03
2022-08-07T22:30:12.803Z,100288.31
2022-08-07T22:32:53.620Z,100278.25
2022-08-07T22:35:24.792Z,100261.47
2022-08-07T22:38:31.891Z,100279.75
2022-08-07T22:41:16.542Z,100183.47
2022-08-07T22:43:51.473Z,100286.03
2022-08-07T22:47:03.751Z,100280.25
2022-08-07T22:50:33.399Z,100284.72
2022-08-07T22:53:15.287Z,100281.06
2022-08-07T22:56:04.020Z,100292.31
2022-08-07T22:58:57.083Z,100291.59
2022-08-07T23:02:10.230Z,100265.50
2022-08-07T23:04:56.854Z,100277.19
2022-08-07T23:07:52.251Z,100269.50
2022-08-07T23:11:13.705Z,100280.13
2022-08-07T23:14:16.654Z,100280.25
2022-08-07T23:16:58.676Z,100278.69
2022-08-07T23:20:04.898Z,100296.56
2022-08-07T23:23:09.703Z,100277.88
2022-08-07T23:26:19.370Z,100272.34
2022-08-07T23:29:43.720Z,100219.13
2022-08-07T23:34:22.386Z,100280.69
2022-08-07T23:35:27.523Z,100225.63
2022-08-07T23:38:10.778Z,100277.72
2022-08-07T23:40:51.636Z,100195.75
2022-08-07T23:43:37.817Z,100268.97
2022-08-07T23:46:24.106Z,100257.13
2022-08-07T23:49:50.584Z,100261.38
2022-08-07T23:53:12.059Z,100242.03
2022-08-07T23:55:56.232Z,100269.25
2022-08-07T23:58:49.451Z,100245.38
